sensor_id;sensor_type;location;lat;lon;timestamp;temperature;humidity
37460;DHT22;23318;50.966;5.284;2023-05-24T00:02:22;10.30;99.90
37460;DHT22;23318;50.966;5.284;2023-05-24T00:04:51;10.20;99.90
37460;DHT22;23318;50.966;5.284;2023-05-24T00:07:17;10.10;99.90
37460;DHT22;23318;50.966;5.284;2023-05-24T00:09:43;10.10;99.90
37460;DHT22;23318;50.966;5.284;2023-05-24T00:12:09;10.10;99.90
37460;DHT22;23318;50.966;5.284;2023-05-24T00:14:35;10.10;99.90
37460;DHT22;23318;50.966;5.284;2023-05-24T00:17:00;10.10;99.90
37460;DHT22;23318;50.966;5.284;2023-05-24T00:19:26;10.10;99.90
37460;DHT22;23318;50.966;5.284;2023-05-24T00:21:52;10.00;99.90
37460;DHT22;23318;50.966;5.284;2023-05-24T00:24:18;10.10;99.90
37460;DHT22;23318;50.966;5.284;2023-05-24T00:26:44;10.00;99.90
37460;DHT22;23318;50.966;5.284;2023-05-24T00:29:09;10.00;99.90
37460;DHT22;23318;50.966;5.284;2023-05-24T00:31:35;10.00;99.90
37460;DHT22;23318;50.966;5.284;2023-05-24T00:34:01;10.10;99.90
37460;DHT22;23318;50.966;5.284;2023-05-24T00:36:26;9.90;99.90
37460;DHT22;23318;50.966;5.284;2023-05-24T00:38:52;10.00;99.90
37460;DHT22;23318;50.966;5.284;2023-05-24T00:41:18;10.00;99.90
37460;DHT22;23318;50.966;5.284;2023-05-24T00:43:44;10.00;99.90
37460;DHT22;23318;50.966;5.284;2023-05-24T00:46:17;9.90;99.90
37460;DHT22;23318;50.966;5.284;2023-05-24T00:48:44;10.00;99.90
37460;DHT22;23318;50.966;5.284;2023-05-24T00:51:11;10.00;99.90
37460;DHT22;23318;50.966;5.284;2023-05-24T00:53:37;9.90;99.90
37460;DHT22;23318;50.966;5.284;2023-05-24T00:56:04;9.80;99.90
37460;DHT22;23318;50.966;5.284;2023-05-24T00:58:31;9.80;99.90
37460;DHT22;23318;50.966;5.284;2023-05-24T01:01:01;9.80;99.90
37460;DHT22;23318;50.966;5.284;2023-05-24T01:03:28;9.70;99.90
37460;DHT22;23318;50.966;5.284;2023-05-24T01:05:57;9.60;99.90
37460;DHT22;23318;50.966;5.284;2023-05-24T01:11:42;9.60;99.90
37460;DHT22;23318;50.966;5.284;2023-05-24T01:14:26;9.70;99.90
37460;DHT22;23318;50.966;5.284;2023-05-24T01:17:09;9.70;99.90
37460;DHT22;23318;50.966;5.284;2023-05-24T01:19:57;9.60;99.90
37460;DHT22;23318;50.966;5.284;2023-05-24T01:27:42;9.50;99.90
37460;DHT22;23318;50.966;5.284;2023-05-24T01:30:09;9.40;99.90
37460;DHT22;23318;50.966;5.284;2023-05-24T01:32:35;9.40;99.90
37460;DHT22;23318;50.966;5.284;2023-05-24T01:35:00;9.30;99.90
37460;DHT22;23318;50.966;5.284;2023-05-24T01:37:26;9.30;99.90
37460;DHT22;23318;50.966;5.284;2023-05-24T01:39:52;9.20;99.90
37460;DHT22;23318;50.966;5.284;2023-05-24T01:42:43;9.10;99.90
37460;DHT22;23318;50.966;5.284;2023-05-24T01:45:24;9.10;99.90
37460;DHT22;23318;50.966;5.284;2023-05-24T01:50:33;9.00;99.90
37460;DHT22;23318;50.966;5.284;2023-05-24T01:53:08;9.00;99.90
37460;DHT22;23318;50.966;5.284;2023-05-24T01:55:35;8.80;99.90
37460;DHT22;23318;50.966;5.284;2023-05-24T01:58:03;8.90;99.90
37460;DHT22;23318;50.966;5.284;2023-05-24T02:00:30;8.80;99.90
37460;DHT22;23318;50.966;5.284;2023-05-24T02:02:57;8.80;99.90
37460;DHT22;23318;50.966;5.284;2023-05-24T02:05:23;8.80;99.90
37460;DHT22;23318;50.966;5.284;2023-05-24T02:07:49;8.70;99.90
37460;DHT22;23318;50.966;5.284;2023-05-24T02:10:15;8.70;99.90
37460;DHT22;23318;50.966;5.284;2023-05-24T02:12:41;8.50;99.90
37460;DHT22;23318;50.966;5.284;2023-05-24T02:15:07;8.50;99.90
37460;DHT22;23318;50.966;5.284;2023-05-24T02:17:33;8.20;99.90
37460;DHT22;23318;50.966;5.284;2023-05-24T02:20:00;8.30;99.90
37460;DHT22;23318;50.966;5.284;2023-05-24T02:22:26;8.50;99.90
37460;DHT22;23318;50.966;5.284;2023-05-24T02:24:53;8.50;99.90
37460;DHT22;23318;50.966;5.284;2023-05-24T02:27:19;8.40;99.90
37460;DHT22;23318;50.966;5.284;2023-05-24T02:29:44;8.30;99.90
37460;DHT22;23318;50.966;5.284;2023-05-24T02:32:12;8.40;99.90
37460;DHT22;23318;50.966;5.284;2023-05-24T02:34:38;8.40;99.90
37460;DHT22;23318;50.966;5.284;2023-05-24T02:37:03;8.30;99.90
37460;DHT22;23318;50.966;5.284;2023-05-24T02:39:30;8.30;99.90
37460;DHT22;23318;50.966;5.284;2023-05-24T02:41:56;8.30;99.90
37460;DHT22;23318;50.966;5.284;2023-05-24T02:44:22;8.20;99.90
37460;DHT22;23318;50.966;5.284;2023-05-24T02:46:48;8.20;99.90
37460;DHT22;23318;50.966;5.284;2023-05-24T02:49:13;8.20;99.90
37460;DHT22;23318;50.966;5.284;2023-05-24T02:51:39;8.20;99.90
37460;DHT22;23318;50.966;5.284;2023-05-24T02:54:05;8.00;99.90
37460;DHT22;23318;50.966;5.284;2023-05-24T02:56:30;8.00;99.90
37460;DHT22;23318;50.966;5.284;2023-05-24T02:58:56;8.10;99.90
37460;DHT22;23318;50.966;5.284;2023-05-24T03:01:22;8.10;99.90
37460;DHT22;23318;50.966;5.284;2023-05-24T03:03:47;8.00;99.90
37460;DHT22;23318;50.966;5.284;2023-05-24T03:06:13;8.00;99.90
37460;DHT22;23318;50.966;5.284;2023-05-24T03:08:40;8.00;99.90
37460;DHT22;23318;50.966;5.284;2023-05-24T03:11:06;7.90;99.90
37460;DHT22;23318;50.966;5.284;2023-05-24T03:13:32;7.90;99.90
37460;DHT22;23318;50.966;5.284;2023-05-24T03:15:57;7.90;99.90
37460;DHT22;23318;50.966;5.284;2023-05-24T03:18:23;7.50;99.90
37460;DHT22;23318;50.966;5.284;2023-05-24T03:20:49;6.70;99.90
37460;DHT22;23318;50.966;5.284;2023-05-24T03:23:15;6.20;99.90
37460;DHT22;23318;50.966;5.284;2023-05-24T03:25:41;6.70;99.90
37460;DHT22;23318;50.966;5.284;2023-05-24T03:28:07;7.00;99.90
37460;DHT22;23318;50.966;5.284;2023-05-24T03:30:32;7.20;99.90
37460;DHT22;23318;50.966;5.284;2023-05-24T03:32:58;7.40;99.90
37460;DHT22;23318;50.966;5.284;2023-05-24T03:35:24;7.50;99.90
37460;DHT22;23318;50.966;5.284;2023-05-24T03:37:49;7.50;99.90
37460;DHT22;23318;50.966;5.284;2023-05-24T03:40:15;7.50;99.90
37460;DHT22;23318;50.966;5.284;2023-05-24T03:42:41;7.50;99.90
37460;DHT22;23318;50.966;5.284;2023-05-24T03:45:07;7.50;99.90
37460;DHT22;23318;50.966;5.284;2023-05-24T03:47:33;7.50;99.90
37460;DHT22;23318;50.966;5.284;2023-05-24T03:49:58;7.30;99.90
37460;DHT22;23318;50.966;5.284;2023-05-24T03:52:24;7.40;99.90
37460;DHT22;23318;50.966;5.284;2023-05-24T03:54:50;7.40;99.90
37460;DHT22;23318;50.966;5.284;2023-05-24T03:57:16;7.40;99.90
37460;DHT22;23318;50.966;5.284;2023-05-24T03:59:42;7.50;99.90
37460;DHT22;23318;50.966;5.284;2023-05-24T04:02:08;7.50;99.90
37460;DHT22;23318;50.966;5.284;2023-05-24T04:04:33;7.50;99.90
37460;DHT22;23318;50.966;5.284;2023-05-24T04:07:01;7.50;99.90
37460;DHT22;23318;50.966;5.284;2023-05-24T04:09:27;7.40;99.90
37460;DHT22;23318;50.966;5.284;2023-05-24T04:11:53;7.50;99.90
37460;DHT22;23318;50.966;5.284;2023-05-24T04:14:18;7.30;99.90
37460;DHT22;23318;50.966;5.284;2023-05-24T04:16:45;6.80;99.90
37460;DHT22;23318;50.966;5.284;2023-05-24T04:19:11;6.90;99.90
37460;DHT22;23318;50.966;5.284;2023-05-24T04:21:37;7.20;99.90
37460;DHT22;23318;50.966;5.284;2023-05-24T04:24:04;7.40;99.90
37460;DHT22;23318;50.966;5.284;2023-05-24T04:26:30;7.40;99.90
37460;DHT22;23318;50.966;5.284;2023-05-24T04:28:56;7.50;99.90
37460;DHT22;23318;50.966;5.284;2023-05-24T04:31:22;7.60;99.90
37460;DHT22;23318;50.966;5.284;2023-05-24T04:33:48;7.70;99.90
37460;DHT22;23318;50.966;5.284;2023-05-24T04:36:14;7.80;99.90
37460;DHT22;23318;50.966;5.284;2023-05-24T04:38:42;7.90;99.90
37460;DHT22;23318;50.966;5.284;2023-05-24T04:41:08;7.90;99.90
37460;DHT22;23318;50.966;5.284;2023-05-24T04:43:34;8.00;99.90
37460;DHT22;23318;50.966;5.284;2023-05-24T04:46:00;8.00;99.90
37460;DHT22;23318;50.966;5.284;2023-05-24T04:48:26;8.20;99.90
37460;DHT22;23318;50.966;5.284;2023-05-24T04:50:52;8.30;99.90
37460;DHT22;23318;50.966;5.284;2023-05-24T04:53:19;8.10;99.90
37460;DHT22;23318;50.966;5.284;2023-05-24T04:55:46;8.10;99.90
37460;DHT22;23318;50.966;5.284;2023-05-24T04:58:12;8.40;99.90
37460;DHT22;23318;50.966;5.284;2023-05-24T05:00:38;8.60;99.90
37460;DHT22;23318;50.966;5.284;2023-05-24T05:03:04;8.60;99.90
37460;DHT22;23318;50.966;5.284;2023-05-24T05:05:29;8.90;99.90
37460;DHT22;23318;50.966;5.284;2023-05-24T05:07:55;9.10;99.90
37460;DHT22;23318;50.966;5.284;2023-05-24T05:10:21;9.20;99.90
37460;DHT22;23318;50.966;5.284;2023-05-24T05:12:47;9.30;99.90
37460;DHT22;23318;50.966;5.284;2023-05-24T05:15:13;9.40;99.90
37460;DHT22;23318;50.966;5.284;2023-05-24T05:17:39;9.50;99.90
37460;DHT22;23318;50.966;5.284;2023-05-24T05:20:05;9.60;99.90
37460;DHT22;23318;50.966;5.284;2023-05-24T05:22:31;9.50;99.90
37460;DHT22;23318;50.966;5.284;2023-05-24T05:24:58;9.60;99.90
37460;DHT22;23318;50.966;5.284;2023-05-24T05:27:23;9.60;99.90
37460;DHT22;23318;50.966;5.284;2023-05-24T05:29:49;9.60;99.90
37460;DHT22;23318;50.966;5.284;2023-05-24T05:32:15;9.70;99.90
37460;DHT22;23318;50.966;5.284;2023-05-24T05:34:40;9.80;99.90
37460;DHT22;23318;50.966;5.284;2023-05-24T05:37:06;10.00;99.90
37460;DHT22;23318;50.966;5.284;2023-05-24T05:39:32;9.60;99.90
37460;DHT22;23318;50.966;5.284;2023-05-24T05:41:58;9.40;99.90
37460;DHT22;23318;50.966;5.284;2023-05-24T05:44:23;9.70;99.90
37460;DHT22;23318;50.966;5.284;2023-05-24T05:46:49;9.70;99.90
37460;DHT22;23318;50.966;5.284;2023-05-24T05:49:15;10.20;99.90
37460;DHT22;23318;50.966;5.284;2023-05-24T05:51:43;10.50;99.90
37460;DHT22;23318;50.966;5.284;2023-05-24T05:54:09;10.50;99.90
37460;DHT22;23318;50.966;5.284;2023-05-24T05:56:42;10.80;99.90
37460;DHT22;23318;50.966;5.284;2023-05-24T05:59:12;11.10;99.90
37460;DHT22;23318;50.966;5.284;2023-05-24T06:01:39;11.30;99.90
37460;DHT22;23318;50.966;5.284;2023-05-24T06:04:05;11.40;99.90
37460;DHT22;23318;50.966;5.284;2023-05-24T06:06:31;11.50;99.90
37460;DHT22;23318;50.966;5.284;2023-05-24T06:08:58;11.60;99.90
37460;DHT22;23318;50.966;5.284;2023-05-24T06:11:23;11.60;99.90
37460;DHT22;23318;50.966;5.284;2023-05-24T06:13:49;11.50;99.90
37460;DHT22;23318;50.966;5.284;2023-05-24T06:16:15;11.50;99.90
37460;DHT22;23318;50.966;5.284;2023-05-24T06:18:40;11.50;99.90
37460;DHT22;23318;50.966;5.284;2023-05-24T06:21:06;11.50;99.90
37460;DHT22;23318;50.966;5.284;2023-05-24T06:23:35;11.40;99.90
37460;DHT22;23318;50.966;5.284;2023-05-24T06:26:02;11.50;99.90
37460;DHT22;23318;50.966;5.284;2023-05-24T06:28:28;11.40;99.90
37460;DHT22;23318;50.966;5.284;2023-05-24T06:30:54;11.00;99.90
37460;DHT22;23318;50.966;5.284;2023-05-24T06:33:20;11.30;99.90
37460;DHT22;23318;50.966;5.284;2023-05-24T06:35:47;11.40;99.90
37460;DHT22;23318;50.966;5.284;2023-05-24T06:38:12;11.70;99.90
37460;DHT22;23318;50.966;5.284;2023-05-24T06:40:38;12.00;99.90
37460;DHT22;23318;50.966;5.284;2023-05-24T06:43:04;11.90;99.90
37460;DHT22;23318;50.966;5.284;2023-05-24T06:45:29;11.90;99.90
37460;DHT22;23318;50.966;5.284;2023-05-24T06:47:55;12.20;99.90
37460;DHT22;23318;50.966;5.284;2023-05-24T06:50:21;12.40;99.90
37460;DHT22;23318;50.966;5.284;2023-05-24T06:52:47;11.70;99.90
37460;DHT22;23318;50.966;5.284;2023-05-24T06:55:13;11.70;99.90
37460;DHT22;23318;50.966;5.284;2023-05-24T06:57:38;11.80;99.90
37460;DHT22;23318;50.966;5.284;2023-05-24T07:00:05;11.80;99.90
37460;DHT22;23318;50.966;5.284;2023-05-24T07:02:40;12.40;99.90
37460;DHT22;23318;50.966;5.284;2023-05-24T07:05:06;12.70;99.90
37460;DHT22;23318;50.966;5.284;2023-05-24T07:07:41;12.60;99.90
37460;DHT22;23318;50.966;5.284;2023-05-24T07:10:07;12.60;99.90
37460;DHT22;23318;50.966;5.284;2023-05-24T07:12:38;12.10;99.90
37460;DHT22;23318;50.966;5.284;2023-05-24T07:15:05;12.00;99.90
37460;DHT22;23318;50.966;5.284;2023-05-24T07:17:31;12.50;99.90
37460;DHT22;23318;50.966;5.284;2023-05-24T07:19:58;12.90;99.90
37460;DHT22;23318;50.966;5.284;2023-05-24T07:22:24;13.10;99.90
37460;DHT22;23318;50.966;5.284;2023-05-24T07:24:53;13.30;99.90
37460;DHT22;23318;50.966;5.284;2023-05-24T07:27:18;13.60;99.90
37460;DHT22;23318;50.966;5.284;2023-05-24T07:29:44;13.80;99.90
37460;DHT22;23318;50.966;5.284;2023-05-24T07:32:10;14.10;99.90
37460;DHT22;23318;50.966;5.284;2023-05-24T07:34:36;14.20;99.90
37460;DHT22;23318;50.966;5.284;2023-05-24T07:37:04;14.10;99.90
37460;DHT22;23318;50.966;5.284;2023-05-24T07:39:29;14.50;99.90
37460;DHT22;23318;50.966;5.284;2023-05-24T07:41:55;14.60;99.90
37460;DHT22;23318;50.966;5.284;2023-05-24T07:44:21;14.60;99.90
37460;DHT22;23318;50.966;5.284;2023-05-24T07:46:48;14.40;99.90
37460;DHT22;23318;50.966;5.284;2023-05-24T07:49:14;14.50;99.90
37460;DHT22;23318;50.966;5.284;2023-05-24T07:51:39;14.20;99.90
37460;DHT22;23318;50.966;5.284;2023-05-24T07:54:05;13.60;99.90
37460;DHT22;23318;50.966;5.284;2023-05-24T07:56:31;13.90;99.90
37460;DHT22;23318;50.966;5.284;2023-05-24T07:58:57;14.50;99.90
37460;DHT22;23318;50.966;5.284;2023-05-24T08:01:32;14.90;99.90
37460;DHT22;23318;50.966;5.284;2023-05-24T08:04:02;14.90;99.60
37460;DHT22;23318;50.966;5.284;2023-05-24T08:06:29;14.60;99.60
37460;DHT22;23318;50.966;5.284;2023-05-24T08:08:55;14.60;99.00
37460;DHT22;23318;50.966;5.284;2023-05-24T08:11:21;14.30;99.80
37460;DHT22;23318;50.966;5.284;2023-05-24T08:13:46;14.40;99.90
37460;DHT22;23318;50.966;5.284;2023-05-24T08:16:12;14.90;99.90
37460;DHT22;23318;50.966;5.284;2023-05-24T08:18:38;15.40;99.50
37460;DHT22;23318;50.966;5.284;2023-05-24T08:21:04;15.10;99.80
37460;DHT22;23318;50.966;5.284;2023-05-24T08:23:29;15.20;99.60
37460;DHT22;23318;50.966;5.284;2023-05-24T08:25:56;15.40;99.00
37460;DHT22;23318;50.966;5.284;2023-05-24T08:28:23;15.20;98.30
37460;DHT22;23318;50.966;5.284;2023-05-24T08:30:48;15.20;97.80
37460;DHT22;23318;50.966;5.284;2023-05-24T08:33:14;14.80;98.10
37460;DHT22;23318;50.966;5.284;2023-05-24T08:35:40;14.70;98.30
37460;DHT22;23318;50.966;5.284;2023-05-24T08:38:06;14.40;98.60
37460;DHT22;23318;50.966;5.284;2023-05-24T08:40:32;14.20;99.20
37460;DHT22;23318;50.966;5.284;2023-05-24T08:42:59;14.50;98.80
37460;DHT22;23318;50.966;5.284;2023-05-24T08:45:31;15.10;97.90
37460;DHT22;23318;50.966;5.284;2023-05-24T08:47:57;15.20;98.10
37460;DHT22;23318;50.966;5.284;2023-05-24T08:50:24;15.20;98.40
37460;DHT22;23318;50.966;5.284;2023-05-24T08:52:51;15.10;98.90
37460;DHT22;23318;50.966;5.284;2023-05-24T08:55:17;15.40;98.40
37460;DHT22;23318;50.966;5.284;2023-05-24T08:57:45;15.70;97.90
37460;DHT22;23318;50.966;5.284;2023-05-24T09:00:11;15.60;97.70
37460;DHT22;23318;50.966;5.284;2023-05-24T09:02:39;16.00;97.60
37460;DHT22;23318;50.966;5.284;2023-05-24T09:05:11;15.80;97.70
37460;DHT22;23318;50.966;5.284;2023-05-24T09:07:39;16.10;97.60
37460;DHT22;23318;50.966;5.284;2023-05-24T09:10:07;15.50;97.50
37460;DHT22;23318;50.966;5.284;2023-05-24T09:12:36;15.70;97.40
37460;DHT22;23318;50.966;5.284;2023-05-24T09:15:03;15.60;97.60
37460;DHT22;23318;50.966;5.284;2023-05-24T09:17:34;16.00;97.70
37460;DHT22;23318;50.966;5.284;2023-05-24T09:20:00;16.40;97.40
37460;DHT22;23318;50.966;5.284;2023-05-24T09:22:27;15.70;97.40
37460;DHT22;23318;50.966;5.284;2023-05-24T09:25:00;15.70;97.10
37460;DHT22;23318;50.966;5.284;2023-05-24T09:27:26;15.90;97.20
37460;DHT22;23318;50.966;5.284;2023-05-24T09:29:52;16.30;96.70
37460;DHT22;23318;50.966;5.284;2023-05-24T09:32:20;16.60;96.50
37460;DHT22;23318;50.966;5.284;2023-05-24T09:34:51;16.70;96.70
37460;DHT22;23318;50.966;5.284;2023-05-24T09:37:21;16.90;96.80
37460;DHT22;23318;50.966;5.284;2023-05-24T09:39:48;16.90;96.90
37460;DHT22;23318;50.966;5.284;2023-05-24T09:42:24;16.90;96.30
37460;DHT22;23318;50.966;5.284;2023-05-24T09:45:07;16.70;96.60
37460;DHT22;23318;50.966;5.284;2023-05-24T09:47:39;16.30;96.70
37460;DHT22;23318;50.966;5.284;2023-05-24T09:50:14;16.80;96.70
37460;DHT22;23318;50.966;5.284;2023-05-24T09:52:42;17.50;96.30
37460;DHT22;23318;50.966;5.284;2023-05-24T09:55:26;17.60;95.80
37460;DHT22;23318;50.966;5.284;2023-05-24T09:58:00;17.70;96.10
37460;DHT22;23318;50.966;5.284;2023-05-24T10:00:37;17.40;95.90
37460;DHT22;23318;50.966;5.284;2023-05-24T10:03:07;17.40;95.70
37460;DHT22;23318;50.966;5.284;2023-05-24T10:05:34;17.40;95.70
37460;DHT22;23318;50.966;5.284;2023-05-24T10:08:00;18.10;95.50
37460;DHT22;23318;50.966;5.284;2023-05-24T10:10:28;18.30;95.00
37460;DHT22;23318;50.966;5.284;2023-05-24T10:12:55;18.10;95.00
37460;DHT22;23318;50.966;5.284;2023-05-24T10:15:21;18.50;95.30
37460;DHT22;23318;50.966;5.284;2023-05-24T10:17:47;18.50;94.80
37460;DHT22;23318;50.966;5.284;2023-05-24T10:20:13;18.10;95.10
37460;DHT22;23318;50.966;5.284;2023-05-24T10:22:43;18.40;94.70
37460;DHT22;23318;50.966;5.284;2023-05-24T10:25:20;18.50;94.70
37460;DHT22;23318;50.966;5.284;2023-05-24T10:27:48;18.70;94.70
37460;DHT22;23318;50.966;5.284;2023-05-24T10:30:41;19.10;94.60
37460;DHT22;23318;50.966;5.284;2023-05-24T10:33:08;18.90;94.40
37460;DHT22;23318;50.966;5.284;2023-05-24T10:35:38;19.30;94.70
37460;DHT22;23318;50.966;5.284;2023-05-24T10:38:06;19.70;94.20
37460;DHT22;23318;50.966;5.284;2023-05-24T10:40:32;19.60;94.20
37460;DHT22;23318;50.966;5.284;2023-05-24T10:42:58;19.30;94.30
37460;DHT22;23318;50.966;5.284;2023-05-24T10:47:50;20.00;93.50
37460;DHT22;23318;50.966;5.284;2023-05-24T10:50:20;19.90;93.70
37460;DHT22;23318;50.966;5.284;2023-05-24T10:52:48;20.30;93.30
37460;DHT22;23318;50.966;5.284;2023-05-24T10:55:13;20.00;93.50
37460;DHT22;23318;50.966;5.284;2023-05-24T10:57:40;19.80;93.50
37460;DHT22;23318;50.966;5.284;2023-05-24T11:02:50;20.80;92.70
37460;DHT22;23318;50.966;5.284;2023-05-24T11:05:16;20.50;92.80
37460;DHT22;23318;50.966;5.284;2023-05-24T11:07:43;20.40;92.80
37460;DHT22;23318;50.966;5.284;2023-05-24T11:10:13;20.30;92.60
37460;DHT22;23318;50.966;5.284;2023-05-24T11:12:39;20.20;93.00
37460;DHT22;23318;50.966;5.284;2023-05-24T11:15:08;20.20;93.30
37460;DHT22;23318;50.966;5.284;2023-05-24T11:20:37;21.30;92.60
37460;DHT22;23318;50.966;5.284;2023-05-24T11:23:06;21.60;91.90
37460;DHT22;23318;50.966;5.284;2023-05-24T11:25:34;20.80;92.60
37460;DHT22;23318;50.966;5.284;2023-05-24T11:28:02;21.60;92.40
37460;DHT22;23318;50.966;5.284;2023-05-24T11:30:31;21.80;91.80
37460;DHT22;23318;50.966;5.284;2023-05-24T11:32:58;21.70;92.00
37460;DHT22;23318;50.966;5.284;2023-05-24T11:35:26;21.60;91.60
37460;DHT22;23318;50.966;5.284;2023-05-24T11:37:56;21.00;91.50
37460;DHT22;23318;50.966;5.284;2023-05-24T11:40:22;20.50;91.60
37460;DHT22;23318;50.966;5.284;2023-05-24T11:42:49;19.80;91.90
37460;DHT22;23318;50.966;5.284;2023-05-24T11:45:16;20.70;91.30
37460;DHT22;23318;50.966;5.284;2023-05-24T11:47:43;21.70;91.30
37460;DHT22;23318;50.966;5.284;2023-05-24T11:50:09;21.70;91.20
37460;DHT22;23318;50.966;5.284;2023-05-24T11:52:39;21.40;91.30
37460;DHT22;23318;50.966;5.284;2023-05-24T11:55:05;20.90;91.10
37460;DHT22;23318;50.966;5.284;2023-05-24T11:57:41;21.00;91.00
37460;DHT22;23318;50.966;5.284;2023-05-24T12:00:10;20.70;91.40
37460;DHT22;23318;50.966;5.284;2023-05-24T12:02:41;21.60;91.10
37460;DHT22;23318;50.966;5.284;2023-05-24T12:05:08;21.10;90.90
37460;DHT22;23318;50.966;5.284;2023-05-24T12:07:35;20.20;92.00
37460;DHT22;23318;50.966;5.284;2023-05-24T12:10:03;20.10;91.90
37460;DHT22;23318;50.966;5.284;2023-05-24T12:12:29;19.90;91.80
37460;DHT22;23318;50.966;5.284;2023-05-24T12:14:55;19.70;91.90
37460;DHT22;23318;50.966;5.284;2023-05-24T12:17:21;20.40;91.50
37460;DHT22;23318;50.966;5.284;2023-05-24T12:19:50;20.20;91.70
37460;DHT22;23318;50.966;5.284;2023-05-24T12:22:16;20.20;91.90
37460;DHT22;23318;50.966;5.284;2023-05-24T12:24:42;20.30;91.50
37460;DHT22;23318;50.966;5.284;2023-05-24T12:27:10;20.20;91.70
37460;DHT22;23318;50.966;5.284;2023-05-24T12:29:37;20.30;92.00
37460;DHT22;23318;50.966;5.284;2023-05-24T12:32:05;19.70;92.10
37460;DHT22;23318;50.966;5.284;2023-05-24T12:34:36;19.20;92.20
37460;DHT22;23318;50.966;5.284;2023-05-24T12:37:02;19.60;91.60
37460;DHT22;23318;50.966;5.284;2023-05-24T12:39:29;20.00;91.40
37460;DHT22;23318;50.966;5.284;2023-05-24T12:42:01;19.90;91.80
37460;DHT22;23318;50.966;5.284;2023-05-24T12:44:34;19.60;91.80
37460;DHT22;23318;50.966;5.284;2023-05-24T12:47:02;19.20;92.10
37460;DHT22;23318;50.966;5.284;2023-05-24T12:49:30;19.00;92.60
37460;DHT22;23318;50.966;5.284;2023-05-24T12:51:56;19.00;92.70
37460;DHT22;23318;50.966;5.284;2023-05-24T12:54:26;19.10;92.60
37460;DHT22;23318;50.966;5.284;2023-05-24T12:56:53;19.40;92.60
37460;DHT22;23318;50.966;5.284;2023-05-24T12:59:19;19.40;92.00
37460;DHT22;23318;50.966;5.284;2023-05-24T13:01:45;19.10;92.30
37460;DHT22;23318;50.966;5.284;2023-05-24T13:04:16;19.00;92.80
37460;DHT22;23318;50.966;5.284;2023-05-24T13:06:42;19.10;92.20
37460;DHT22;23318;50.966;5.284;2023-05-24T13:09:08;18.60;92.80
37460;DHT22;23318;50.966;5.284;2023-05-24T13:11:34;18.90;92.50
37460;DHT22;23318;50.966;5.284;2023-05-24T13:14:02;19.20;92.40
37460;DHT22;23318;50.966;5.284;2023-05-24T13:16:28;19.00;92.70
37460;DHT22;23318;50.966;5.284;2023-05-24T13:18:53;19.10;92.70
37460;DHT22;23318;50.966;5.284;2023-05-24T13:21:20;19.10;92.60
37460;DHT22;23318;50.966;5.284;2023-05-24T13:23:46;18.40;92.40
37460;DHT22;23318;50.966;5.284;2023-05-24T13:26:11;18.20;92.90
37460;DHT22;23318;50.966;5.284;2023-05-24T13:28:37;18.00;93.10
37460;DHT22;23318;50.966;5.284;2023-05-24T13:31:03;18.10;93.10
37460;DHT22;23318;50.966;5.284;2023-05-24T13:33:32;18.00;93.20
37460;DHT22;23318;50.966;5.284;2023-05-24T13:35:58;18.10;93.40
37460;DHT22;23318;50.966;5.284;2023-05-24T13:38:24;18.30;93.30
37460;DHT22;23318;50.966;5.284;2023-05-24T13:40:51;18.30;93.30
37460;DHT22;23318;50.966;5.284;2023-05-24T13:43:18;18.20;93.10
37460;DHT22;23318;50.966;5.284;2023-05-24T13:45:43;18.00;93.20
37460;DHT22;23318;50.966;5.284;2023-05-24T13:48:10;17.90;93.20
37460;DHT22;23318;50.966;5.284;2023-05-24T13:50:36;18.00;93.40
37460;DHT22;23318;50.966;5.284;2023-05-24T13:53:03;17.90;93.40
37460;DHT22;23318;50.966;5.284;2023-05-24T13:55:30;18.00;93.60
37460;DHT22;23318;50.966;5.284;2023-05-24T13:57:56;17.80;93.70
37460;DHT22;23318;50.966;5.284;2023-05-24T14:00:23;17.80;93.80
37460;DHT22;23318;50.966;5.284;2023-05-24T14:02:49;17.70;93.80
37460;DHT22;23318;50.966;5.284;2023-05-24T14:05:16;17.60;94.10
37460;DHT22;23318;50.966;5.284;2023-05-24T14:07:42;17.90;94.20
37460;DHT22;23318;50.966;5.284;2023-05-24T14:10:07;18.00;93.80
37460;DHT22;23318;50.966;5.284;2023-05-24T14:12:34;17.80;93.90
37460;DHT22;23318;50.966;5.284;2023-05-24T14:15:00;17.70;94.10
37460;DHT22;23318;50.966;5.284;2023-05-24T14:17:26;17.80;94.30
37460;DHT22;23318;50.966;5.284;2023-05-24T14:19:52;17.90;94.40
37460;DHT22;23318;50.966;5.284;2023-05-24T14:22:17;17.90;94.30
37460;DHT22;23318;50.966;5.284;2023-05-24T14:24:43;17.90;94.00
37460;DHT22;23318;50.966;5.284;2023-05-24T14:27:09;18.10;94.00
37460;DHT22;23318;50.966;5.284;2023-05-24T14:29:34;17.90;94.00
37460;DHT22;23318;50.966;5.284;2023-05-24T14:32:00;17.80;94.20
37460;DHT22;23318;50.966;5.284;2023-05-24T14:34:26;18.10;94.10
37460;DHT22;23318;50.966;5.284;2023-05-24T14:36:53;18.30;94.00
37460;DHT22;23318;50.966;5.284;2023-05-24T14:39:18;18.00;93.90
37460;DHT22;23318;50.966;5.284;2023-05-24T14:41:44;18.60;93.90
37460;DHT22;23318;50.966;5.284;2023-05-24T14:44:10;21.30;92.00
37460;DHT22;23318;50.966;5.284;2023-05-24T14:46:35;22.90;90.90
37460;DHT22;23318;50.966;5.284;2023-05-24T14:49:01;24.40;90.10
37460;DHT22;23318;50.966;5.284;2023-05-24T14:51:27;25.60;87.40
37460;DHT22;23318;50.966;5.284;2023-05-24T14:53:53;24.50;86.70
37460;DHT22;23318;50.966;5.284;2023-05-24T14:56:19;24.10;87.30
37460;DHT22;23318;50.966;5.284;2023-05-24T14:58:45;23.20;87.70
37460;DHT22;23318;50.966;5.284;2023-05-24T15:01:10;22.30;89.20
37460;DHT22;23318;50.966;5.284;2023-05-24T15:03:36;23.30;88.10
37460;DHT22;23318;50.966;5.284;2023-05-24T15:06:03;25.00;85.20
37460;DHT22;23318;50.966;5.284;2023-05-24T15:08:28;23.20;86.50
37460;DHT22;23318;50.966;5.284;2023-05-24T15:10:54;22.30;88.80
37460;DHT22;23318;50.966;5.284;2023-05-24T15:13:20;22.20;89.70
37460;DHT22;23318;50.966;5.284;2023-05-24T15:15:47;21.30;90.30
37460;DHT22;23318;50.966;5.284;2023-05-24T15:18:13;20.90;90.30
37460;DHT22;23318;50.966;5.284;2023-05-24T15:20:39;21.00;90.70
37460;DHT22;23318;50.966;5.284;2023-05-24T15:23:05;21.30;91.00
37460;DHT22;23318;50.966;5.284;2023-05-24T15:25:35;21.40;90.30
37460;DHT22;23318;50.966;5.284;2023-05-24T15:28:00;21.70;90.20
37460;DHT22;23318;50.966;5.284;2023-05-24T15:30:26;20.80;90.70
37460;DHT22;23318;50.966;5.284;2023-05-24T15:32:51;20.60;90.90
37460;DHT22;23318;50.966;5.284;2023-05-24T15:35:17;20.40;91.30
37460;DHT22;23318;50.966;5.284;2023-05-24T15:37:43;19.60;91.30
37460;DHT22;23318;50.966;5.284;2023-05-24T15:40:10;19.00;92.30
37460;DHT22;23318;50.966;5.284;2023-05-24T15:42:35;18.90;92.30
37460;DHT22;23318;50.966;5.284;2023-05-24T15:45:01;18.90;92.60
37460;DHT22;23318;50.966;5.284;2023-05-24T15:47:27;18.80;92.90
37460;DHT22;23318;50.966;5.284;2023-05-24T15:49:55;18.60;93.20
37460;DHT22;23318;50.966;5.284;2023-05-24T15:52:21;18.50;93.50
37460;DHT22;23318;50.966;5.284;2023-05-24T15:54:47;18.40;93.30